sensor_id;sensor_type;location;lat;lon;timestamp;P1;P2;P0
64114;PMS5003;62188;35.640;139.748;2023-03-20T00:00:47;32;30;
64114;PMS5003;62188;35.640;139.748;2023-03-20T00:03:12;29;27;
64114;PMS5003;62188;35.640;139.748;2023-03-20T00:05:37;30;30;
64114;PMS5003;62188;35.640;139.748;2023-03-20T00:08:03;32;27;
64114;PMS5003;62188;35.640;139.748;2023-03-20T00:10:30;28;27;
64114;PMS5003;62188;35.640;139.748;2023-03-20T00:12:54;29;26;
64114;PMS5003;62188;35.640;139.748;2023-03-20T00:15:23;28;25;
64114;PMS5003;62188;35.640;139.748;2023-03-20T00:17:45;25;23;
64114;PMS5003;62188;35.640;139.748;2023-03-20T00:20:13;28;27;
64114;PMS5003;62188;35.640;139.748;2023-03-20T00:22:36;27;27;
64114;PMS5003;62188;35.640;139.748;2023-03-20T00:25:02;28;28;
64114;PMS5003;62188;35.640;139.748;2023-03-20T00:27:27;25;25;
64114;PMS5003;62188;35.640;139.748;2023-03-20T00:29:53;29;28;
64114;PMS5003;62188;35.640;139.748;2023-03-20T00:32:18;28;27;
64114;PMS5003;62188;35.640;139.748;2023-03-20T00:34:44;30;29;
64114;PMS5003;62188;35.640;139.748;2023-03-20T00:37:10;27;26;
64114;PMS5003;62188;35.640;139.748;2023-03-20T00:39:35;29;28;
64114;PMS5003;62188;35.640;139.748;2023-03-20T00:42:01;31;31;
64114;PMS5003;62188;35.640;139.748;2023-03-20T00:44:28;35;34;
64114;PMS5003;62188;35.640;139.748;2023-03-20T00:46:53;32;30;
64114;PMS5003;62188;35.640;139.748;2023-03-20T00:49:18;30;30;
64114;PMS5003;62188;35.640;139.748;2023-03-20T00:51:42;30;30;
64114;PMS5003;62188;35.640;139.748;2023-03-20T00:54:11;38;34;
64114;PMS5003;62188;35.640;139.748;2023-03-20T00:56:44;32;31;
64114;PMS5003;62188;35.640;139.748;2023-03-20T00:59:00;33;31;
64114;PMS5003;62188;35.640;139.748;2023-03-20T01:01:25;35;35;
64114;PMS5003;62188;35.640;139.748;2023-03-20T01:03:51;30;28;
64114;PMS5003;62188;35.640;139.748;2023-03-20T01:06:16;39;35;
64114;PMS5003;62188;35.640;139.748;2023-03-20T01:08:42;33;32;
64114;PMS5003;62188;35.640;139.748;2023-03-20T01:11:13;38;38;
64114;PMS5003;62188;35.640;139.748;2023-03-20T01:13:33;35;32;
64114;PMS5003;62188;35.640;139.748;2023-03-20T01:15:58;36;35;
64114;PMS5003;62188;35.640;139.748;2023-03-20T01:18:24;41;36;
64114;PMS5003;62188;35.640;139.748;2023-03-20T01:20:48;37;35;
64114;PMS5003;62188;35.640;139.748;2023-03-20T01:23:13;34;33;
64114;PMS5003;62188;35.640;139.748;2023-03-20T01:25:40;34;33;
64114;PMS5003;62188;35.640;139.748;2023-03-20T01:30:31;40;39;
64114;PMS5003;62188;35.640;139.748;2023-03-20T01:32:56;40;39;
64114;PMS5003;62188;35.640;139.748;2023-03-20T01:35:21;40;40;
64114;PMS5003;62188;35.640;139.748;2023-03-20T01:37:47;41;39;
64114;PMS5003;62188;35.640;139.748;2023-03-20T01:40:15;40;40;
64114;PMS5003;62188;35.640;139.748;2023-03-20T01:42:37;39;39;
64114;PMS5003;62188;35.640;139.748;2023-03-20T01:47:29;38;36;
64114;PMS5003;62188;35.640;139.748;2023-03-20T01:52:21;33;32;
64114;PMS5003;62188;35.640;139.748;2023-03-20T01:54:45;33;33;
64114;PMS5003;62188;35.640;139.748;2023-03-20T01:57:11;38;36;
64114;PMS5003;62188;35.640;139.748;2023-03-20T01:59:36;31;29;
64114;PMS5003;62188;35.640;139.748;2023-03-20T02:02:01;39;37;
64114;PMS5003;62188;35.640;139.748;2023-03-20T02:04:29;32;31;
64114;PMS5003;62188;35.640;139.748;2023-03-20T02:06:53;30;30;
64114;PMS5003;62188;35.640;139.748;2023-03-20T02:09:18;33;29;
64114;PMS5003;62188;35.640;139.748;2023-03-20T02:11:44;33;32;
64114;PMS5003;62188;35.640;139.748;2023-03-20T02:14:10;35;34;
64114;PMS5003;62188;35.640;139.748;2023-03-20T02:16:35;27;27;
64114;PMS5003;62188;35.640;139.748;2023-03-20T02:19:01;34;31;
64114;PMS5003;62188;35.640;139.748;2023-03-20T02:26:20;37;35;
64114;PMS5003;62188;35.640;139.748;2023-03-20T02:40:51;26;26;
64114;PMS5003;62188;35.640;139.748;2023-03-20T02:43:16;30;27;
64114;PMS5003;62188;35.640;139.748;2023-03-20T02:45:43;26;25;
64114;PMS5003;62188;35.640;139.748;2023-03-20T02:48:07;29;26;
64114;PMS5003;62188;35.640;139.748;2023-03-20T02:50:32;28;25;
64114;PMS5003;62188;35.640;139.748;2023-03-20T02:52:58;30;26;
64114;PMS5003;62188;35.640;139.748;2023-03-20T02:55:24;27;27;
64114;PMS5003;62188;35.640;139.748;2023-03-20T02:57:50;29;26;
64114;PMS5003;62188;35.640;139.748;2023-03-20T03:00:14;29;29;
64114;PMS5003;62188;35.640;139.748;2023-03-20T03:02:39;25;24;
64114;PMS5003;62188;35.640;139.748;2023-03-20T03:05:05;28;27;
64114;PMS5003;62188;35.640;139.748;2023-03-20T03:07:29;22;22;
64114;PMS5003;62188;35.640;139.748;2023-03-20T03:09:54;22;22;
64114;PMS5003;62188;35.640;139.748;2023-03-20T03:12:20;24;24;
64114;PMS5003;62188;35.640;139.748;2023-03-20T03:14:46;28;28;
64114;PMS5003;62188;35.640;139.748;2023-03-20T03:17:11;24;23;
64114;PMS5003;62188;35.640;139.748;2023-03-20T03:19:36;28;28;
64114;PMS5003;62188;35.640;139.748;2023-03-20T03:22:01;23;22;
64114;PMS5003;62188;35.640;139.748;2023-03-20T03:24:28;27;23;
64114;PMS5003;62188;35.640;139.748;2023-03-20T03:26:52;23;23;
64114;PMS5003;62188;35.640;139.748;2023-03-20T03:29:17;21;21;
64114;PMS5003;62188;35.640;139.748;2023-03-20T03:31:43;23;23;
64114;PMS5003;62188;35.640;139.748;2023-03-20T03:34:08;24;21;
64114;PMS5003;62188;35.640;139.748;2023-03-20T03:36:37;22;22;
64114;PMS5003;62188;35.640;139.748;2023-03-20T03:38:59;19;19;
64114;PMS5003;62188;35.640;139.748;2023-03-20T03:41:26;22;20;
64114;PMS5003;62188;35.640;139.748;2023-03-20T03:43:52;22;20;
64114;PMS5003;62188;35.640;139.748;2023-03-20T03:46:17;20;18;
64114;PMS5003;62188;35.640;139.748;2023-03-20T03:48:42;20;20;
64114;PMS5003;62188;35.640;139.748;2023-03-20T03:51:07;21;21;
64114;PMS5003;62188;35.640;139.748;2023-03-20T03:53:33;21;20;
64114;PMS5003;62188;35.640;139.748;2023-03-20T03:55:58;22;22;
64114;PMS5003;62188;35.640;139.748;2023-03-20T03:58:25;19;18;
64114;PMS5003;62188;35.640;139.748;2023-03-20T04:00:49;23;20;
64114;PMS5003;62188;35.640;139.748;2023-03-20T04:03:14;23;21;
64114;PMS5003;62188;35.640;139.748;2023-03-20T04:05:41;19;17;
64114;PMS5003;62188;35.640;139.748;2023-03-20T04:08:06;15;15;
64114;PMS5003;62188;35.640;139.748;2023-03-20T04:10:31;12;12;
64114;PMS5003;62188;35.640;139.748;2023-03-20T04:12:57;13;12;
64114;PMS5003;62188;35.640;139.748;2023-03-20T04:15:22;13;12;
64114;PMS5003;62188;35.640;139.748;2023-03-20T04:17:48;13;12;
64114;PMS5003;62188;35.640;139.748;2023-03-20T04:20:13;16;13;
64114;PMS5003;62188;35.640;139.748;2023-03-20T04:22:39;14;12;
64114;PMS5003;62188;35.640;139.748;2023-03-20T04:25:05;13;13;
64114;PMS5003;62188;35.640;139.748;2023-03-20T04:27:30;15;13;
64114;PMS5003;62188;35.640;139.748;2023-03-20T04:29:55;12;12;
64114;PMS5003;62188;35.640;139.748;2023-03-20T04:32:21;8;8;
64114;PMS5003;62188;35.640;139.748;2023-03-20T04:34:46;14;13;
64114;PMS5003;62188;35.640;139.748;2023-03-20T04:37:13;12;12;
64114;PMS5003;62188;35.640;139.748;2023-03-20T04:39:37;13;12;
64114;PMS5003;62188;35.640;139.748;2023-03-20T04:42:03;11;11;
64114;PMS5003;62188;35.640;139.748;2023-03-20T04:44:28;12;12;
64114;PMS5003;62188;35.640;139.748;2023-03-20T04:46:54;14;11;
64114;PMS5003;62188;35.640;139.748;2023-03-20T04:49:19;10;10;
64114;PMS5003;62188;35.640;139.748;2023-03-20T04:51:45;11;11;
64114;PMS5003;62188;35.640;139.748;2023-03-20T04:54:11;11;11;
64114;PMS5003;62188;35.640;139.748;2023-03-20T04:56:36;9;9;
64114;PMS5003;62188;35.640;139.748;2023-03-20T04:59:02;12;11;
64114;PMS5003;62188;35.640;139.748;2023-03-20T05:01:32;13;12;
64114;PMS5003;62188;35.640;139.748;2023-03-20T05:03:52;11;11;
64114;PMS5003;62188;35.640;139.748;2023-03-20T05:06:18;13;13;
64114;PMS5003;62188;35.640;139.748;2023-03-20T05:08:44;12;12;
64114;PMS5003;62188;35.640;139.748;2023-03-20T05:11:09;16;14;
64114;PMS5003;62188;35.640;139.748;2023-03-20T05:13:35;13;12;
64114;PMS5003;62188;35.640;139.748;2023-03-20T05:16:00;82;77;
64114;PMS5003;62188;35.640;139.748;2023-03-20T05:18:25;14;13;
64114;PMS5003;62188;35.640;139.748;2023-03-20T05:20:56;16;13;
64114;PMS5003;62188;35.640;139.748;2023-03-20T05:23:16;10;8;
64114;PMS5003;62188;35.640;139.748;2023-03-20T05:25:41;9;9;
64114;PMS5003;62188;35.640;139.748;2023-03-20T05:28:07;10;10;
64114;PMS5003;62188;35.640;139.748;2023-03-20T05:30:33;9;9;
64114;PMS5003;62188;35.640;139.748;2023-03-20T05:32:58;11;11;
64114;PMS5003;62188;35.640;139.748;2023-03-20T05:35:23;10;10;
64114;PMS5003;62188;35.640;139.748;2023-03-20T05:37:49;11;11;
64114;PMS5003;62188;35.640;139.748;2023-03-20T05:40:14;10;9;
64114;PMS5003;62188;35.640;139.748;2023-03-20T05:42:41;10;9;
64114;PMS5003;62188;35.640;139.748;2023-03-20T05:45:06;11;10;
64114;PMS5003;62188;35.640;139.748;2023-03-20T05:47:31;9;9;
64114;PMS5003;62188;35.640;139.748;2023-03-20T05:49:57;9;8;
64114;PMS5003;62188;35.640;139.748;2023-03-20T05:52:22;8;8;
64114;PMS5003;62188;35.640;139.748;2023-03-20T05:54:47;10;10;
64114;PMS5003;62188;35.640;139.748;2023-03-20T05:57:13;9;9;
64114;PMS5003;62188;35.640;139.748;2023-03-20T05:59:39;9;8;
64114;PMS5003;62188;35.640;139.748;2023-03-20T06:02:05;9;9;
64114;PMS5003;62188;35.640;139.748;2023-03-20T06:04:30;8;7;
64114;PMS5003;62188;35.640;139.748;2023-03-20T06:06:55;10;10;
64114;PMS5003;62188;35.640;139.748;2023-03-20T06:09:25;9;9;
64114;PMS5003;62188;35.640;139.748;2023-03-20T06:11:46;7;7;
64114;PMS5003;62188;35.640;139.748;2023-03-20T06:14:11;10;9;
64114;PMS5003;62188;35.640;139.748;2023-03-20T06:16:37;10;9;
64114;PMS5003;62188;35.640;139.748;2023-03-20T06:19:03;10;10;
64114;PMS5003;62188;35.640;139.748;2023-03-20T06:21:28;11;11;
64114;PMS5003;62188;35.640;139.748;2023-03-20T06:23:54;8;8;
64114;PMS5003;62188;35.640;139.748;2023-03-20T06:26:19;10;10;
64114;PMS5003;62188;35.640;139.748;2023-03-20T06:28:45;14;10;
64114;PMS5003;62188;35.640;139.748;2023-03-20T06:31:10;9;8;
64114;PMS5003;62188;35.640;139.748;2023-03-20T06:33:36;10;8;
64114;PMS5003;62188;35.640;139.748;2023-03-20T06:36:02;9;8;
64114;PMS5003;62188;35.640;139.748;2023-03-20T06:38:27;10;9;
64114;PMS5003;62188;35.640;139.748;2023-03-20T06:40:52;9;8;
64114;PMS5003;62188;35.640;139.748;2023-03-20T06:43:18;9;8;
64114;PMS5003;62188;35.640;139.748;2023-03-20T06:45:44;10;9;
64114;PMS5003;62188;35.640;139.748;2023-03-20T06:48:10;7;6;
64114;PMS5003;62188;35.640;139.748;2023-03-20T06:50:35;8;7;
64114;PMS5003;62188;35.640;139.748;2023-03-20T06:53:00;9;9;
64114;PMS5003;62188;35.640;139.748;2023-03-20T06:55:26;9;9;
64114;PMS5003;62188;35.640;139.748;2023-03-20T06:57:52;8;8;
64114;PMS5003;62188;35.640;139.748;2023-03-20T07:00:18;7;6;
64114;PMS5003;62188;35.640;139.748;2023-03-20T07:02:43;8;8;
64114;PMS5003;62188;35.640;139.748;2023-03-20T07:05:09;7;7;
64114;PMS5003;62188;35.640;139.748;2023-03-20T07:07:34;10;10;
64114;PMS5003;62188;35.640;139.748;2023-03-20T07:09:59;9;8;
64114;PMS5003;62188;35.640;139.748;2023-03-20T07:12:25;9;9;
64114;PMS5003;62188;35.640;139.748;2023-03-20T07:14:50;11;8;
64114;PMS5003;62188;35.640;139.748;2023-03-20T07:17:16;11;9;
64114;PMS5003;62188;35.640;139.748;2023-03-20T07:19:42;8;8;
64114;PMS5003;62188;35.640;139.748;2023-03-20T07:22:07;8;8;
64114;PMS5003;62188;35.640;139.748;2023-03-20T07:24:33;6;5;
64114;PMS5003;62188;35.640;139.748;2023-03-20T07:26:58;7;7;
64114;PMS5003;62188;35.640;139.748;2023-03-20T07:29:24;9;8;
64114;PMS5003;62188;35.640;139.748;2023-03-20T07:31:49;10;9;
64114;PMS5003;62188;35.640;139.748;2023-03-20T07:34:15;9;7;
64114;PMS5003;62188;35.640;139.748;2023-03-20T07:36:40;9;7;
64114;PMS5003;62188;35.640;139.748;2023-03-20T07:39:06;7;7;
64114;PMS5003;62188;35.640;139.748;2023-03-20T07:41:31;7;7;
64114;PMS5003;62188;35.640;139.748;2023-03-20T07:43:57;9;9;
64114;PMS5003;62188;35.640;139.748;2023-03-20T07:46:23;11;8;
64114;PMS5003;62188;35.640;139.748;2023-03-20T07:48:48;7;7;
64114;PMS5003;62188;35.640;139.748;2023-03-20T07:51:14;9;9;
64114;PMS5003;62188;35.640;139.748;2023-03-20T07:53:40;8;8;
64114;PMS5003;62188;35.640;139.748;2023-03-20T07:56:05;8;8;
64114;PMS5003;62188;35.640;139.748;2023-03-20T07:58:31;8;8;
64114;PMS5003;62188;35.640;139.748;2023-03-20T08:00:56;8;8;
64114;PMS5003;62188;35.640;139.748;2023-03-20T08:03:22;14;10;
64114;PMS5003;62188;35.640;139.748;2023-03-20T08:05:47;10;8;
64114;PMS5003;62188;35.640;139.748;2023-03-20T08:08:13;9;8;
64114;PMS5003;62188;35.640;139.748;2023-03-20T08:10:38;7;7;
64114;PMS5003;62188;35.640;139.748;2023-03-20T08:13:04;11;10;
64114;PMS5003;62188;35.640;139.748;2023-03-20T08:15:30;7;7;
64114;PMS5003;62188;35.640;139.748;2023-03-20T08:17:55;11;10;
64114;PMS5003;62188;35.640;139.748;2023-03-20T08:20:21;9;8;
64114;PMS5003;62188;35.640;139.748;2023-03-20T08:22:46;10;9;
64114;PMS5003;62188;35.640;139.748;2023-03-20T08:25:12;10;9;
64114;PMS5003;62188;35.640;139.748;2023-03-20T08:27:37;12;11;
64114;PMS5003;62188;35.640;139.748;2023-03-20T08:30:03;11;10;
64114;PMS5003;62188;35.640;139.748;2023-03-20T08:32:28;10;9;
64114;PMS5003;62188;35.640;139.748;2023-03-20T08:34:54;12;11;
64114;PMS5003;62188;35.640;139.748;2023-03-20T08:37:19;11;10;
64114;PMS5003;62188;35.640;139.748;2023-03-20T08:39:46;13;12;
64114;PMS5003;62188;35.640;139.748;2023-03-20T08:42:10;11;11;
64114;PMS5003;62188;35.640;139.748;2023-03-20T08:44:36;12;12;
64114;PMS5003;62188;35.640;139.748;2023-03-20T08:47:01;11;10;
64114;PMS5003;62188;35.640;139.748;2023-03-20T08:49:27;15;13;
64114;PMS5003;62188;35.640;139.748;2023-03-20T08:51:52;9;8;
64114;PMS5003;62188;35.640;139.748;2023-03-20T08:54:17;11;11;
64114;PMS5003;62188;35.640;139.748;2023-03-20T08:56:43;11;10;
64114;PMS5003;62188;35.640;139.748;2023-03-20T08:59:09;10;7;
64114;PMS5003;62188;35.640;139.748;2023-03-20T09:01:35;10;9;
64114;PMS5003;62188;35.640;139.748;2023-03-20T09:04:00;9;8;
64114;PMS5003;62188;35.640;139.748;2023-03-20T09:06:26;13;11;
64114;PMS5003;62188;35.640;139.748;2023-03-20T09:08:52;9;8;
64114;PMS5003;62188;35.640;139.748;2023-03-20T09:11:17;8;8;
64114;PMS5003;62188;35.640;139.748;2023-03-20T09:13:42;11;10;
64114;PMS5003;62188;35.640;139.748;2023-03-20T09:16:08;8;7;
64114;PMS5003;62188;35.640;139.748;2023-03-20T09:18:33;8;8;
64114;PMS5003;62188;35.640;139.748;2023-03-20T09:20:59;11;9;
64114;PMS5003;62188;35.640;139.748;2023-03-20T09:23:24;10;10;
64114;PMS5003;62188;35.640;139.748;2023-03-20T09:25:50;12;11;
64114;PMS5003;62188;35.640;139.748;2023-03-20T09:28:15;10;10;
64114;PMS5003;62188;35.640;139.748;2023-03-20T09:30:41;9;9;
64114;PMS5003;62188;35.640;139.748;2023-03-20T09:33:07;10;9;
64114;PMS5003;62188;35.640;139.748;2023-03-20T09:35:32;12;11;
64114;PMS5003;62188;35.640;139.748;2023-03-20T09:37:58;9;9;
64114;PMS5003;62188;35.640;139.748;2023-03-20T09:40:25;12;10;
64114;PMS5003;62188;35.640;139.748;2023-03-20T09:42:50;8;8;
64114;PMS5003;62188;35.640;139.748;2023-03-20T09:45:16;9;9;
64114;PMS5003;62188;35.640;139.748;2023-03-20T09:47:42;10;9;
64114;PMS5003;62188;35.640;139.748;2023-03-20T09:50:11;12;11;
64114;PMS5003;62188;35.640;139.748;2023-03-20T09:52:31;12;10;
64114;PMS5003;62188;35.640;139.748;2023-03-20T09:54:57;11;11;
64114;PMS5003;62188;35.640;139.748;2023-03-20T09:57:25;13;11;
64114;PMS5003;62188;35.640;139.748;2023-03-20T09:59:48;11;9;
64114;PMS5003;62188;35.640;139.748;2023-03-20T10:02:14;10;9;
64114;PMS5003;62188;35.640;139.748;2023-03-20T10:04:40;11;10;
64114;PMS5003;62188;35.640;139.748;2023-03-20T10:07:05;7;7;
64114;PMS5003;62188;35.640;139.748;2023-03-20T10:09:30;9;8;
64114;PMS5003;62188;35.640;139.748;2023-03-20T10:12:00;12;11;
64114;PMS5003;62188;35.640;139.748;2023-03-20T10:14:24;8;8;
64114;PMS5003;62188;35.640;139.748;2023-03-20T10:16:52;11;10;
64114;PMS5003;62188;35.640;139.748;2023-03-20T10:19:16;10;7;
64114;PMS5003;62188;35.640;139.748;2023-03-20T10:21:40;10;9;
64114;PMS5003;62188;35.640;139.748;2023-03-20T10:24:04;10;9;
64114;PMS5003;62188;35.640;139.748;2023-03-20T10:26:30;9;8;
64114;PMS5003;62188;35.640;139.748;2023-03-20T10:28:56;11;10;
64114;PMS5003;62188;35.640;139.748;2023-03-20T10:31:24;10;9;
64114;PMS5003;62188;35.640;139.748;2023-03-20T10:33:49;9;9;
64114;PMS5003;62188;35.640;139.748;2023-03-20T10:36:15;11;10;
64114;PMS5003;62188;35.640;139.748;2023-03-20T10:38:38;11;11;
64114;PMS5003;62188;35.640;139.748;2023-03-20T10:41:03;11;9;
64114;PMS5003;62188;35.640;139.748;2023-03-20T10:43:29;9;9;
64114;PMS5003;62188;35.640;139.748;2023-03-20T10:45:56;10;10;
64114;PMS5003;62188;35.640;139.748;2023-03-20T10:48:21;10;10;
64114;PMS5003;62188;35.640;139.748;2023-03-20T10:50:46;10;9;
64114;PMS5003;62188;35.640;139.748;2023-03-20T10:53:16;10;10;
64114;PMS5003;62188;35.640;139.748;2023-03-20T10:55:36;11;9;
64114;PMS5003;62188;35.640;139.748;2023-03-20T10:58:04;11;10;
64114;PMS5003;62188;35.640;139.748;2023-03-20T11:00:27;11;10;
64114;PMS5003;62188;35.640;139.748;2023-03-20T11:02:53;9;9;
64114;PMS5003;62188;35.640;139.748;2023-03-20T11:05:21;11;10;
64114;PMS5003;62188;35.640;139.748;2023-03-20T11:07:44;10;8;
64114;PMS5003;62188;35.640;139.748;2023-03-20T11:10:11;11;11;
64114;PMS5003;62188;35.640;139.748;2023-03-20T11:12:35;13;12;
64114;PMS5003;62188;35.640;139.748;2023-03-20T11:15:03;14;11;
64114;PMS5003;62188;35.640;139.748;2023-03-20T11:17:27;12;12;
64114;PMS5003;62188;35.640;139.748;2023-03-20T11:19:52;12;10;
64114;PMS5003;62188;35.640;139.748;2023-03-20T11:22:21;11;9;
64114;PMS5003;62188;35.640;139.748;2023-03-20T11:24:44;12;12;
64114;PMS5003;62188;35.640;139.748;2023-03-20T11:27:09;15;14;
64114;PMS5003;62188;35.640;139.748;2023-03-20T11:29:35;13;12;
64114;PMS5003;62188;35.640;139.748;2023-03-20T11:32:03;13;10;
64114;PMS5003;62188;35.640;139.748;2023-03-20T11:34:25;15;13;
64114;PMS5003;62188;35.640;139.748;2023-03-20T11:36:53;15;13;
64114;PMS5003;62188;35.640;139.748;2023-03-20T11:39:26;13;12;
64114;PMS5003;62188;35.640;139.748;2023-03-20T11:41:45;12;11;
64114;PMS5003;62188;35.640;139.748;2023-03-20T11:46:33;15;12;
64114;PMS5003;62188;35.640;139.748;2023-03-20T11:49:04;12;12;
64114;PMS5003;62188;35.640;139.748;2023-03-20T11:51:24;15;12;
64114;PMS5003;62188;35.640;139.748;2023-03-20T11:53:56;13;12;
64114;PMS5003;62188;35.640;139.748;2023-03-20T11:56:21;14;13;
64114;PMS5003;62188;35.640;139.748;2023-03-20T12:01:07;14;13;
64114;PMS5003;62188;35.640;139.748;2023-03-20T12:03:33;15;14;
64114;PMS5003;62188;35.640;139.748;2023-03-20T12:05:59;14;13;
64114;PMS5003;62188;35.640;139.748;2023-03-20T12:08:23;11;10;
64114;PMS5003;62188;35.640;139.748;2023-03-20T12:10:49;14;14;
64114;PMS5003;62188;35.640;139.748;2023-03-20T12:13:15;13;13;
64114;PMS5003;62188;35.640;139.748;2023-03-20T12:15:39;12;11;
64114;PMS5003;62188;35.640;139.748;2023-03-20T12:18:05;13;11;
64114;PMS5003;62188;35.640;139.748;2023-03-20T12:20:31;16;15;
64114;PMS5003;62188;35.640;139.748;2023-03-20T12:22:58;16;14;
64114;PMS5003;62188;35.640;139.748;2023-03-20T12:25:21;13;12;
64114;PMS5003;62188;35.640;139.748;2023-03-20T12:27:48;13;13;
64114;PMS5003;62188;35.640;139.748;2023-03-20T12:30:13;14;13;
64114;PMS5003;62188;35.640;139.748;2023-03-20T12:32:39;12;10;
64114;PMS5003;62188;35.640;139.748;2023-03-20T12:35:04;12;12;
64114;PMS5003;62188;35.640;139.748;2023-03-20T12:37:28;12;11;
64114;PMS5003;62188;35.640;139.748;2023-03-20T12:39:54;14;12;
64114;PMS5003;62188;35.640;139.748;2023-03-20T12:42:23;16;16;
64114;PMS5003;62188;35.640;139.748;2023-03-20T12:44:46;15;13;
64114;PMS5003;62188;35.640;139.748;2023-03-20T12:47:14;17;14;
64114;PMS5003;62188;35.640;139.748;2023-03-20T12:49:38;15;13;
64114;PMS5003;62188;35.640;139.748;2023-03-20T12:52:03;14;14;
64114;PMS5003;62188;35.640;139.748;2023-03-20T12:54:33;13;12;
64114;PMS5003;62188;35.640;139.748;2023-03-20T12:56:56;12;10;
64114;PMS5003;62188;35.640;139.748;2023-03-20T12:59:19;11;9;
64114;PMS5003;62188;35.640;139.748;2023-03-20T13:01:45;11;11;
64114;PMS5003;62188;35.640;139.748;2023-03-20T13:04:17;11;11;
64114;PMS5003;62188;35.640;139.748;2023-03-20T13:06:37;9;9;
64114;PMS5003;62188;35.640;139.748;2023-03-20T13:09:02;11;10;
64114;PMS5003;62188;35.640;139.748;2023-03-20T13:11:27;11;10;
64114;PMS5003;62188;35.640;139.748;2023-03-20T13:13:51;13;10;
64114;PMS5003;62188;35.640;139.748;2023-03-20T13:16:18;10;9;
64114;PMS5003;62188;35.640;139.748;2023-03-20T13:18:46;11;10;
64114;PMS5003;62188;35.640;139.748;2023-03-20T13:21:08;15;11;
64114;PMS5003;62188;35.640;139.748;2023-03-20T13:23:35;9;9;
64114;PMS5003;62188;35.640;139.748;2023-03-20T13:26:02;11;10;
64114;PMS5003;62188;35.640;139.748;2023-03-20T13:28:25;12;10;
64114;PMS5003;62188;35.640;139.748;2023-03-20T13:30:50;10;10;
64114;PMS5003;62188;35.640;139.748;2023-03-20T13:33:19;12;11;
64114;PMS5003;62188;35.640;139.748;2023-03-20T13:35:42;8;8;
64114;PMS5003;62188;35.640;139.748;2023-03-20T13:38:08;8;8;
64114;PMS5003;62188;35.640;139.748;2023-03-20T13:40:32;10;10;
64114;PMS5003;62188;35.640;139.748;2023-03-20T13:42:58;8;8;
64114;PMS5003;62188;35.640;139.748;2023-03-20T13:45:25;10;9;
64114;PMS5003;62188;35.640;139.748;2023-03-20T13:47:48;11;10;
64114;PMS5003;62188;35.640;139.748;2023-03-20T13:52:41;10;10;
64114;PMS5003;62188;35.640;139.748;2023-03-20T13:55:11;13;10;
64114;PMS5003;62188;35.640;139.748;2023-03-20T13:59:58;9;8;
64114;PMS5003;62188;35.640;139.748;2023-03-20T14:02:26;10;9;
64114;PMS5003;62188;35.640;139.748;2023-03-20T14:04:49;10;10;
64114;PMS5003;62188;35.640;139.748;2023-03-20T14:09:38;9;9;
64114;PMS5003;62188;35.640;139.748;2023-03-20T14:12:05;8;7;
64114;PMS5003;62188;35.640;139.748;2023-03-20T14:14:30;9;8;
64114;PMS5003;62188;35.640;139.748;2023-03-20T14:16:59;10;9;
64114;PMS5003;62188;35.640;139.748;2023-03-20T14:19:23;7;7;
64114;PMS5003;62188;35.640;139.748;2023-03-20T14:21:46;11;8;
64114;PMS5003;62188;35.640;139.748;2023-03-20T14:24:12;10;9;
64114;PMS5003;62188;35.640;139.748;2023-03-20T14:26:38;10;10;
64114;PMS5003;62188;35.640;139.748;2023-03-20T14:31:29;10;9;
64114;PMS5003;62188;35.640;139.748;2023-03-20T14:34:01;10;10;
64114;PMS5003;62188;35.640;139.748;2023-03-20T14:36:20;9;8;
64114;PMS5003;62188;35.640;139.748;2023-03-20T14:38:47;9;8;
64114;PMS5003;62188;35.640;139.748;2023-03-20T14:41:11;10;7;
64114;PMS5003;62188;35.640;139.748;2023-03-20T14:43:40;8;8;
64114;PMS5003;62188;35.640;139.748;2023-03-20T14:46:02;7;7;
64114;PMS5003;62188;35.640;139.748;2023-03-20T14:48:29;8;8;
64114;PMS5003;62188;35.640;139.748;2023-03-20T14:50:57;9;8;
64114;PMS5003;62188;35.640;139.748;2023-03-20T14:53:19;9;9;
64114;PMS5003;62188;35.640;139.748;2023-03-20T14:55:50;9;9;
64114;PMS5003;62188;35.640;139.748;2023-03-20T15:00:42;9;8;
64114;PMS5003;62188;35.640;139.748;2023-03-20T15:03:03;8;8;
64114;PMS5003;62188;35.640;139.748;2023-03-20T15:05:27;11;11;
64114;PMS5003;62188;35.640;139.748;2023-03-20T15:07:52;7;7;
64114;PMS5003;62188;35.640;139.748;2023-03-20T15:10:17;9;9;
64114;PMS5003;62188;35.640;139.748;2023-03-20T15:12:43;14;12;
64114;PMS5003;62188;35.640;139.748;2023-03-20T15:17:35;13;13;
64114;PMS5003;62188;35.640;139.748;2023-03-20T15:20:00;12;11;
64114;PMS5003;62188;35.640;139.748;2023-03-20T15:22:25;8;8;
64114;PMS5003;62188;35.640;139.748;2023-03-20T15:24:51;21;17;
64114;PMS5003;62188;35.640;139.748;2023-03-20T15:27:16;20;18;
64114;PMS5003;62188;35.640;139.748;2023-03-20T15:29:43;10;9;
64114;PMS5003;62188;35.640;139.748;2023-03-20T15:32:09;18;15;
64114;PMS5003;62188;35.640;139.748;2023-03-20T15:34:33;20;18;
64114;PMS5003;62188;35.640;139.748;2023-03-20T15:36:58;16;16;
64114;PMS5003;62188;35.640;139.748;2023-03-20T15:39:24;18;17;
64114;PMS5003;62188;35.640;139.748;2023-03-20T15:41:51;8;8;
64114;PMS5003;62188;35.640;139.748;2023-03-20T15:44:16;17;16;
64114;PMS5003;62188;35.640;139.748;2023-03-20T15:46:40;22;22;
64114;PMS5003;62188;35.640;139.748;2023-03-20T15:49:05;27;27;
64114;PMS5003;62188;35.640;139.748;2023-03-20T15:51:31;22;21;
64114;PMS5003;62188;35.640;139.748;2023-03-20T15:53:56;23;22;
64114;PMS5003;62188;35.640;139.748;2023-03-20T15:56:23;34;33;
64114;PMS5003;62188;35.640;139.748;2023-03-20T15:58:48;13;11;
64114;PMS5003;62188;35.640;139.748;2023-03-20T16:01:14;21;20;
64114;PMS5003;62188;35.640;139.748;2023-03-20T16:03:38;26;26;
64114;PMS5003;62188;35.640;139.748;2023-03-20T16:06:04;30;25;
64114;PMS5003;62188;35.640;139.748;2023-03-20T16:08:29;18;17;
64114;PMS5003;62188;35.640;139.748;2023-03-20T16:10:55;34;31;
64114;PMS5003;62188;35.640;139.748;2023-03-20T16:13:19;20;17;
64114;PMS5003;62188;35.640;139.748;2023-03-20T16:15:45;35;33;
64114;PMS5003;62188;35.640;139.748;2023-03-20T16:18:12;20;19;
64114;PMS5003;62188;35.640;139.748;2023-03-20T16:20:37;26;24;
64114;PMS5003;62188;35.640;139.748;2023-03-20T16:23:01;29;29;
64114;PMS5003;62188;35.640;139.748;2023-03-20T16:25:26;44;43;